createdAt,value
2018-12-20T00:01:23.070Z,95758.34
2018-12-20T00:03:52.159Z,95755.61
2018-12-20T00:06:21.167Z,95761.28
2018-12-20T00:08:50.242Z,95757.72
2018-12-20T00:11:19.211Z,95762.47
2018-12-20T00:13:47.983Z,95762.01
2018-12-20T00:16:16.994Z,95769.49
2018-12-20T00:18:45.995Z,95769.39
2018-12-20T00:21:14.714Z,95768.17
2018-12-20T00:23:43.579Z,95766.80
2018-12-20T00:26:12.555Z,95766.98
2018-12-20T00:28:41.384Z,95773.32
2018-12-20T00:31:13.592Z,95770.98
2018-12-20T00:33:40.931Z,95784.39
2018-12-20T00:36:09.809Z,95784.66
2018-12-20T00:38:38.800Z,95788.16
2018-12-20T00:41:07.783Z,95795.19
2018-12-20T00:43:36.834Z,95797.75
2018-12-20T00:46:05.578Z,95802.82
2018-12-20T00:48:34.365Z,95800.71
2018-12-20T00:51:03.462Z,95800.08
2018-12-20T00:53:32.953Z,95797.30
2018-12-20T00:56:02.335Z,95799.66
2018-12-20T00:58:31.305Z,95795.06
2018-12-20T01:01:00.068Z,95800.84
2018-12-20T01:03:28.893Z,95795.97
2018-12-20T01:05:57.964Z,95798.08
2018-12-20T01:08:27.100Z,95804.55
2018-12-20T01:10:58.137Z,95799.31
2018-12-20T01:13:27.146Z,95797.20
2018-12-20T01:15:56.138Z,95788.55
2018-12-20T01:18:25.021Z,95794.78
2018-12-20T01:20:54.289Z,95793.03
2018-12-20T01:23:23.012Z,95785.78
2018-12-20T01:25:51.927Z,95785.63
2018-12-20T01:28:20.941Z,95783.84
2018-12-20T01:30:50.010Z,95775.67
2018-12-20T01:33:18.985Z,95775.48
2018-12-20T01:35:47.899Z,95775.11
2018-12-20T01:38:16.868Z,95770.89
2018-12-20T01:40:45.593Z,95771.94
2018-12-20T01:43:14.709Z,95769.59
2018-12-20T01:45:43.686Z,95765.67
2018-12-20T01:48:12.648Z,95766.87
2018-12-20T01:50:41.892Z,95759.00
2018-12-20T01:53:10.987Z,95761.67
2018-12-20T01:55:39.666Z,95756.82
2018-12-20T01:58:08.507Z,95751.19
2018-12-20T02:00:37.571Z,95749.33
2018-12-20T02:03:06.388Z,95745.97
2018-12-20T02:05:35.404Z,95743.77
2018-12-20T02:08:04.495Z,95746.65
2018-12-20T02:10:33.352Z,95738.84
2018-12-20T02:13:02.540Z,95738.45
2018-12-20T02:15:31.484Z,95740.89
2018-12-20T02:18:00.463Z,95738.59
2018-12-20T02:20:29.210Z,95744.44
2018-12-20T02:22:58.079Z,95740.30
2018-12-20T02:25:33.634Z,95743.33
2018-12-20T02:28:02.729Z,95742.27
2018-12-20T02:30:31.859Z,95741.09
2018-12-20T02:33:00.810Z,95745.66
2018-12-20T02:35:29.758Z,95740.23
2018-12-20T02:37:58.983Z,95742.84
2018-12-20T02:40:28.523Z,95744.69
2018-12-20T02:42:57.585Z,95743.47
2018-12-20T02:45:26.683Z,95739.52
2018-12-20T02:47:55.470Z,95742.58
2018-12-20T02:50:24.290Z,95745.22
2018-12-20T02:52:53.224Z,95747.37
2018-12-20T02:55:21.909Z,95749.02
2018-12-20T02:57:50.699Z,95758.67
2018-12-20T03:00:19.467Z,95759.45
2018-12-20T03:02:48.315Z,95757.39
2018-12-20T03:05:17.312Z,95758.22
2018-12-20T03:07:46.401Z,95755.11
2018-12-20T03:10:15.772Z,95750.94
2018-12-20T03:12:44.782Z,95750.90
2018-12-20T03:15:19.803Z,95755.21
2018-12-20T03:17:44.458Z,95757.52
2018-12-20T03:20:13.937Z,95755.94
2018-12-20T03:22:42.659Z,95756.40
2018-12-20T03:25:11.652Z,95753.73
2018-12-20T03:27:40.634Z,95756.03
2018-12-20T03:30:10.052Z,95754.30
2018-12-20T03:32:39.236Z,95749.42
2018-12-20T03:35:08.164Z,95749.88
2018-12-20T03:37:37.172Z,95745.11
2018-12-20T03:40:07.132Z,95743.33
2018-12-20T03:42:36.115Z,95741.95
2018-12-20T03:45:06.243Z,95746.36
2018-12-20T03:47:35.441Z,95747.00
2018-12-20T03:50:05.575Z,95753.15
2018-12-20T03:52:34.661Z,95746.84
2018-12-20T03:55:03.849Z,95746.70
2018-12-20T03:57:32.650Z,95749.00
2018-12-20T04:00:01.502Z,95750.60
2018-12-20T04:02:30.577Z,95749.97
2018-12-20T04:04:59.515Z,95750.23
2018-12-20T04:07:28.282Z,95745.83
2018-12-20T04:09:57.262Z,95753.80
2018-12-20T04:12:27.140Z,95749.89
2018-12-20T04:14:56.159Z,95747.69
2018-12-20T04:17:25.479Z,95749.48
2018-12-20T04:19:54.629Z,95758.22
2018-12-20T04:22:23.791Z,95763.09
2018-12-20T04:24:53.166Z,95765.92
2018-12-20T04:27:22.271Z,95764.78
2018-12-20T04:29:51.098Z,95772.03
2018-12-20T04:32:20.041Z,95767.25
2018-12-20T04:34:49.039Z,95776.25
2018-12-20T04:37:18.024Z,95782.43
2018-12-20T04:39:46.939Z,95777.23
2018-12-20T04:42:15.925Z,95778.53
2018-12-20T04:44:44.673Z,95776.46
2018-12-20T04:47:13.778Z,95781.37
2018-12-20T04:49:42.879Z,95780.73
2018-12-20T04:52:11.858Z,95787.14
2018-12-20T04:54:40.851Z,95782.19
2018-12-20T04:57:09.639Z,95774.98
2018-12-20T04:59:38.378Z,95778.63
2018-12-20T05:02:07.349Z,95777.24
2018-12-20T05:04:36.307Z,95779.86
2018-12-20T05:07:05.361Z,95774.16
2018-12-20T05:09:35.118Z,95776.50
2018-12-20T05:12:04.351Z,95774.89
2018-12-20T05:14:33.605Z,95771.27
2018-12-20T05:17:02.572Z,95774.61
2018-12-20T05:19:31.872Z,95777.55
2018-12-20T05:22:00.929Z,95791.09
2018-12-20T05:24:29.933Z,95787.97
2018-12-20T05:26:58.948Z,95786.58
2018-12-20T05:29:27.725Z,95788.04
2018-12-20T05:31:56.798Z,95796.18
2018-12-20T05:34:26.023Z,95796.83
2018-12-20T05:36:55.167Z,95795.36
2018-12-20T05:39:24.817Z,95800.50
2018-12-20T05:41:53.797Z,95799.98
2018-12-20T05:44:23.063Z,95807.94
2018-12-20T05:46:52.295Z,95812.66
2018-12-20T05:49:21.275Z,95811.88
2018-12-20T05:51:50.366Z,95807.70
2018-12-20T05:54:19.661Z,95807.88
2018-12-20T05:56:48.658Z,95810.97
2018-12-20T05:59:17.562Z,95802.20
2018-12-20T06:01:46.614Z,95803.63
2018-12-20T06:04:15.761Z,95802.43
2018-12-20T06:06:44.813Z,95800.73
2018-12-20T06:09:13.549Z,95796.51
2018-12-20T06:11:42.346Z,95797.45
2018-12-20T06:14:11.163Z,95787.88
2018-12-20T06:16:40.172Z,95797.83
2018-12-20T06:19:08.984Z,95799.30
2018-12-20T06:21:37.814Z,95802.74
2018-12-20T06:24:06.773Z,95800.05
2018-12-20T06:26:35.445Z,95807.38
2018-12-20T06:29:04.180Z,95805.95
2018-12-20T06:31:33.170Z,95801.13
2018-12-20T06:34:01.952Z,95813.11
2018-12-20T06:36:30.882Z,95811.68
2018-12-20T06:38:59.637Z,95812.59
2018-12-20T06:41:28.417Z,95822.52
2018-12-20T06:43:57.177Z,95825.41
2018-12-20T06:46:26.014Z,95815.44
2018-12-20T06:48:54.714Z,95833.38
2018-12-20T06:51:23.570Z,95834.36
2018-12-20T06:53:52.273Z,95838.75
2018-12-20T06:56:21.019Z,95837.38
2018-12-20T06:58:49.775Z,95839.08
2018-12-20T07:01:18.508Z,95841.47
2018-12-20T07:03:47.268Z,95836.33
2018-12-20T07:06:16.026Z,95844.60
2018-12-20T07:08:44.785Z,95837.24
2018-12-20T07:11:13.505Z,95843.16
2018-12-20T07:13:42.222Z,95849.37
2018-12-20T07:16:10.945Z,95850.51
2018-12-20T07:18:39.786Z,95852.57
2018-12-20T07:21:08.726Z,95856.33
2018-12-20T07:23:37.560Z,95855.55
2018-12-20T07:26:06.302Z,95856.60
2018-12-20T07:28:35.116Z,95855.19
2018-12-20T07:31:03.941Z,95848.89
2018-12-20T07:33:32.629Z,95852.16
2018-12-20T07:36:01.332Z,95857.13
2018-12-20T07:38:30.003Z,95860.92
2018-12-20T07:40:58.774Z,95854.08
2018-12-20T07:43:27.814Z,95855.13
2018-12-20T07:45:56.513Z,95857.08
2018-12-20T07:48:32.017Z,95858.66
2018-12-20T07:50:56.020Z,95867.81
2018-12-20T07:53:24.726Z,95866.57
2018-12-20T07:55:53.466Z,95866.39
2018-12-20T07:58:22.269Z,95866.62
2018-12-20T08:00:51.116Z,95865.83
2018-12-20T08:03:19.816Z,95867.56
2018-12-20T08:05:48.555Z,95864.68
2018-12-20T08:08:17.305Z,95871.47
2018-12-20T08:10:46.081Z,95873.02
2018-12-20T08:13:14.837Z,95877.47
2018-12-20T08:15:43.586Z,95879.22
2018-12-20T08:18:12.378Z,95883.84
2018-12-20T08:20:41.150Z,95881.88
2018-12-20T08:23:09.970Z,95878.81
2018-12-20T08:25:40.295Z,95878.85
2018-12-20T08:28:09.472Z,95878.52
2018-12-20T08:30:38.187Z,95873.18
2018-12-20T08:33:07.000Z,95863.71
2018-12-20T08:35:35.695Z,95865.13
2018-12-20T08:38:04.423Z,95867.80
2018-12-20T08:40:33.163Z,95865.00
2018-12-20T08:43:01.914Z,95869.28
2018-12-20T08:45:30.646Z,95864.77
2018-12-20T08:47:59.415Z,95866.38
2018-12-20T08:50:28.179Z,95867.73
2018-12-20T08:52:56.943Z,95868.33
2018-12-20T08:55:25.699Z,95871.21
2018-12-20T08:57:54.456Z,95879.15
2018-12-20T09:00:23.346Z,95880.52
2018-12-20T09:02:52.251Z,95869.30
2018-12-20T09:05:21.014Z,95869.46
2018-12-20T09:07:49.911Z,95869.00
2018-12-20T09:10:18.676Z,95872.30
2018-12-20T09:12:47.483Z,95862.53
2018-12-20T09:15:16.270Z,95867.53
2018-12-20T09:17:45.204Z,95859.52
2018-12-20T09:20:14.429Z,95859.00
2018-12-20T09:22:43.165Z,95855.73
2018-12-20T09:25:11.936Z,95858.31
2018-12-20T09:27:40.682Z,95862.81
2018-12-20T09:30:11.422Z,95851.69
2018-12-20T09:32:40.147Z,95847.02
2018-12-20T09:35:09.063Z,95846.02
2018-12-20T09:37:37.835Z,95848.92
2018-12-20T09:40:06.637Z,95850.69
2018-12-20T09:42:35.389Z,95839.57
2018-12-20T09:45:04.706Z,95827.05
2018-12-20T09:47:38.798Z,95832.56
2018-12-20T09:50:08.433Z,95830.80
2018-12-20T09:52:37.231Z,95822.91
2018-12-20T09:55:06.372Z,95822.04
2018-12-20T09:57:35.187Z,95816.22
2018-12-20T10:00:11.689Z,95812.14
2018-12-20T10:02:40.441Z,95799.44
2018-12-20T10:05:09.810Z,95805.06
2018-12-20T10:07:38.473Z,95803.13
2018-12-20T10:10:08.922Z,95805.09
2018-12-20T10:12:37.728Z,95795.36
2018-12-20T10:15:07.587Z,95807.18
2018-12-20T10:17:36.432Z,95812.70
2018-12-20T10:20:06.702Z,95812.81
2018-12-20T10:22:35.507Z,95809.11
2018-12-20T10:25:04.756Z,95806.50
2018-12-20T10:27:33.476Z,95803.34
2018-12-20T10:30:02.211Z,95803.58
2018-12-20T10:32:30.917Z,95798.38
2018-12-20T10:34:59.650Z,95800.73
2018-12-20T10:37:28.384Z,95796.40
2018-12-20T10:39:57.223Z,95790.30
2018-12-20T10:42:26.062Z,95793.10
2018-12-20T10:44:54.858Z,95789.84
2018-12-20T10:47:28.824Z,95789.52
2018-12-20T10:50:01.752Z,95778.86
2018-12-20T10:52:30.520Z,95778.99
2018-12-20T10:54:59.247Z,95775.93
2018-12-20T10:57:27.909Z,95771.83
2018-12-20T10:59:56.666Z,95762.08
2018-12-20T11:02:30.659Z,95767.36
2018-12-20T11:05:04.899Z,95755.06
2018-12-20T11:07:38.896Z,95750.70
2018-12-20T11:10:14.577Z,95749.66
2018-12-20T11:12:48.193Z,95747.99
2018-12-20T11:15:17.543Z,95740.82
2018-12-20T11:17:46.375Z,95746.95
2018-12-20T11:20:15.138Z,95748.00
2018-12-20T11:22:43.826Z,95742.73
2018-12-20T11:25:12.951Z,95745.06
2018-12-20T11:27:41.762Z,95741.55
2018-12-20T11:30:11.862Z,95740.16
2018-12-20T11:32:40.689Z,95738.60
2018-12-20T11:35:09.572Z,95745.41
2018-12-20T11:37:38.276Z,95742.16
2018-12-20T11:40:08.325Z,95740.37
2018-12-20T11:42:37.185Z,95730.19
2018-12-20T11:45:07.378Z,95734.63
2018-12-20T11:47:36.198Z,95724.33
2018-12-20T11:50:05.976Z,95718.66
2018-12-20T11:52:42.174Z,95732.86
2018-12-20T11:55:06.056Z,95734.65
2018-12-20T11:57:34.897Z,95735.45
2018-12-20T12:00:07.843Z,95737.66
2018-12-20T12:02:36.672Z,95723.00
2018-12-20T12:05:05.669Z,95713.38
2018-12-20T12:07:34.506Z,95716.53
2018-12-20T12:10:05.421Z,95721.38
2018-12-20T12:12:34.575Z,95717.14
2018-12-20T12:15:03.854Z,95727.81
2018-12-20T12:17:32.830Z,95732.50
2018-12-20T12:20:01.530Z,95733.69
2018-12-20T12:22:30.332Z,95730.64
2018-12-20T12:24:59.133Z,95731.25
2018-12-20T12:27:27.847Z,95725.37
2018-12-20T12:29:56.539Z,95729.58
2018-12-20T12:32:25.456Z,95741.09
2018-12-20T12:34:54.349Z,95729.02
2018-12-20T12:37:23.097Z,95730.78
2018-12-20T12:39:51.890Z,95722.92
2018-12-20T12:42:20.649Z,95716.58
2018-12-20T12:44:49.490Z,95712.02
2018-12-20T12:47:22.527Z,95718.56
2018-12-20T12:49:51.278Z,95713.62
2018-12-20T12:52:20.163Z,95714.20
2018-12-20T12:54:48.887Z,95706.95
2018-12-20T12:57:17.614Z,95715.17
2018-12-20T12:59:47.517Z,95713.06
2018-12-20T13:02:16.542Z,95724.07
2018-12-20T13:04:45.352Z,95730.42
2018-12-20T13:07:14.523Z,95739.19
2018-12-20T13:09:43.393Z,95741.79
2018-12-20T13:12:12.117Z,95741.68
2018-12-20T13:14:41.390Z,95736.87
2018-12-20T13:17:10.108Z,95728.66
2018-12-20T13:19:38.922Z,95736.74
2018-12-20T13:22:07.650Z,95738.72
2018-12-20T13:24:36.476Z,95733.20
2018-12-20T13:27:06.395Z,95739.30
2018-12-20T13:29:35.235Z,95738.25
2018-12-20T13:32:03.926Z,95737.09
2018-12-20T13:34:39.490Z,95749.14
2018-12-20T13:37:15.619Z,95742.34
2018-12-20T13:39:39.192Z,95745.39
2018-12-20T13:42:07.908Z,95756.89
2018-12-20T13:44:36.638Z,95753.84
2018-12-20T13:47:05.334Z,95752.98
2018-12-20T13:49:34.040Z,95748.66
2018-12-20T13:52:02.829Z,95743.00
2018-12-20T13:54:31.520Z,95744.39
2018-12-20T13:57:00.439Z,95744.86
2018-12-20T13:59:29.249Z,95742.17
2018-12-20T14:01:58.006Z,95743.78
2018-12-20T14:04:27.236Z,95747.28
2018-12-20T14:06:55.998Z,95740.17
2018-12-20T14:09:24.682Z,95743.10
2018-12-20T14:11:53.468Z,95749.87
2018-12-20T14:14:22.359Z,95749.04
2018-12-20T14:16:53.529Z,95749.86
2018-12-20T14:19:22.430Z,95747.75
2018-12-20T14:21:54.622Z,95745.74
2018-12-20T14:24:23.387Z,95746.77
2018-12-20T14:26:52.664Z,95747.91
2018-12-20T14:29:24.063Z,95736.83
2018-12-20T14:31:53.040Z,95731.31
2018-12-20T14:34:21.796Z,95740.94
2018-12-20T14:36:50.979Z,95738.47
2018-12-20T14:39:19.772Z,95741.01
2018-12-20T14:41:48.567Z,95739.97
2018-12-20T14:44:17.296Z,95733.74
2018-12-20T14:46:46.057Z,95737.90
2018-12-20T14:49:14.923Z,95733.28
2018-12-20T14:51:43.722Z,95739.05
2018-12-20T14:54:12.816Z,95732.14
2018-12-20T14:56:41.892Z,95740.23
2018-12-20T14:59:10.650Z,95739.36
2018-12-20T15:01:40.719Z,95735.63
2018-12-20T15:04:09.492Z,95737.23
2018-12-20T15:06:38.725Z,95744.04
2018-12-20T15:09:08.410Z,95746.25
2018-12-20T15:11:37.324Z,95745.44
2018-12-20T15:14:06.209Z,95755.94
2018-12-20T15:16:35.414Z,95751.97
2018-12-20T15:19:04.697Z,95757.39
2018-12-20T15:21:33.468Z,95759.39
2018-12-20T15:24:02.209Z,95764.66
2018-12-20T15:26:30.964Z,95775.80
2018-12-20T15:28:59.832Z,95777.89
2018-12-20T15:31:28.627Z,95778.36
2018-12-20T15:33:57.382Z,95781.14
2018-12-20T15:36:26.150Z,95793.19
2018-12-20T15:38:54.859Z,95797.36
2018-12-20T15:41:23.669Z,95804.91
2018-12-20T15:43:52.418Z,95805.52
2018-12-20T15:46:22.329Z,95808.75
2018-12-20T15:48:56.443Z,95809.68
2018-12-20T15:51:24.327Z,95803.98
2018-12-20T15:53:53.015Z,95811.89
2018-12-20T15:56:21.694Z,95811.89
2018-12-20T15:58:50.444Z,95806.84
2018-12-20T16:01:19.485Z,95807.21
2018-12-20T16:03:48.276Z,95807.21
2018-12-20T16:06:17.343Z,95804.99
2018-12-20T16:08:46.137Z,95806.75
2018-12-20T16:11:15.064Z,95811.80
2018-12-20T16:13:43.816Z,95820.34
2018-12-20T16:16:13.150Z,95829.82
2018-12-20T16:18:42.571Z,95832.58
2018-12-20T16:21:11.263Z,95830.56
2018-12-20T16:23:40.222Z,95830.80
2018-12-20T16:26:08.902Z,95834.05
2018-12-20T16:28:37.673Z,95834.53
2018-12-20T16:31:06.423Z,95840.92
2018-12-20T16:33:35.256Z,95834.97
2018-12-20T16:36:04.667Z,95850.14
2018-12-20T16:38:33.360Z,95855.76
2018-12-20T16:41:02.094Z,95847.30
2018-12-20T16:43:30.941Z,95849.78
2018-12-20T16:45:59.664Z,95856.94
2018-12-20T16:48:28.361Z,95857.06
2018-12-20T16:50:57.122Z,95866.08
2018-12-20T16:53:25.854Z,95859.80
2018-12-20T16:55:54.608Z,95860.43
2018-12-20T16:58:23.374Z,95864.09
2018-12-20T17:00:52.107Z,95853.51
2018-12-20T17:03:20.946Z,95856.19
2018-12-20T17:05:49.827Z,95856.73
2018-12-20T17:08:18.609Z,95851.41
2018-12-20T17:10:47.382Z,95847.75
2018-12-20T17:13:16.180Z,95840.41
2018-12-20T17:15:44.884Z,95839.27
2018-12-20T17:18:13.654Z,95841.15
2018-12-20T17:20:42.487Z,95835.64
2018-12-20T17:23:11.366Z,95841.38
2018-12-20T17:25:40.096Z,95848.47
2018-12-20T17:28:08.847Z,95849.58
2018-12-20T17:30:37.603Z,95843.39
2018-12-20T17:33:06.373Z,95848.70
2018-12-20T17:35:35.166Z,95848.70
2018-12-20T17:38:03.963Z,95844.98
2018-12-20T17:40:32.809Z,95852.09
2018-12-20T17:43:08.416Z,95849.05
2018-12-20T17:45:37.191Z,95847.66
2018-12-20T17:48:05.937Z,95848.39
2018-12-20T17:50:34.704Z,95852.90
2018-12-20T17:53:03.931Z,95848.13
2018-12-20T17:55:32.632Z,95848.88
2018-12-20T17:58:01.386Z,95851.88
2018-12-20T18:00:30.157Z,95852.56
2018-12-20T18:02:58.879Z,95848.05
2018-12-20T18:05:27.623Z,95850.06
2018-12-20T18:07:56.580Z,95859.25
2018-12-20T18:10:25.455Z,95857.14
2018-12-20T18:12:54.223Z,95864.13
2018-12-20T18:15:23.248Z,95865.95
2018-12-20T18:17:52.436Z,95862.55
2018-12-20T18:20:21.229Z,95858.12
2018-12-20T18:22:49.968Z,95848.48
2018-12-20T18:25:18.713Z,95854.64
2018-12-20T18:27:47.526Z,95852.92
2018-12-20T18:30:16.766Z,95845.36
2018-12-20T18:32:45.484Z,95843.12
2018-12-20T18:35:14.225Z,95834.02
2018-12-20T18:37:43.028Z,95833.92
2018-12-20T18:40:11.757Z,95856.16
2018-12-20T18:42:40.525Z,95867.77
2018-12-20T18:45:10.669Z,95867.01
2018-12-20T18:47:39.436Z,95862.75
2018-12-20T18:50:10.623Z,95866.19
2018-12-20T18:52:39.393Z,95862.45
2018-12-20T18:55:08.638Z,95862.63
2018-12-20T18:57:37.495Z,95870.64
2018-12-20T19:00:14.673Z,95860.80
2018-12-20T19:02:43.391Z,95871.07
2018-12-20T19:05:12.083Z,95878.76
2018-12-20T19:07:40.824Z,95869.81
2018-12-20T19:10:10.226Z,95869.94
2018-12-20T19:12:38.941Z,95860.10
2018-12-20T19:15:09.190Z,95859.71
2018-12-20T19:17:38.165Z,95872.56
2018-12-20T19:20:15.952Z,95881.53
2018-12-20T19:22:39.506Z,95873.12
2018-12-20T19:25:08.444Z,95883.75
2018-12-20T19:27:37.215Z,95884.70
2018-12-20T19:30:13.643Z,95876.78
2018-12-20T19:32:42.333Z,95870.20
2018-12-20T19:35:12.484Z,95878.13
2018-12-20T19:37:41.267Z,95869.22
2018-12-20T19:40:12.334Z,95869.05
2018-12-20T19:42:41.375Z,95873.44
2018-12-20T19:45:10.615Z,95875.19
2018-12-20T19:47:39.391Z,95883.08
2018-12-20T19:50:16.434Z,95895.98
2018-12-20T19:52:45.435Z,95893.71
2018-12-20T19:55:14.225Z,95886.31
2018-12-20T19:57:42.939Z,95894.30
2018-12-20T20:00:14.479Z,95889.86
2018-12-20T20:02:43.184Z,95894.11
2018-12-20T20:05:12.035Z,95898.66
2018-12-20T20:07:40.767Z,95902.16
2018-12-20T20:10:11.333Z,95901.65
2018-12-20T20:12:40.133Z,95900.27
2018-12-20T20:15:16.345Z,95898.30
2018-12-20T20:17:42.188Z,95900.78
2018-12-20T20:20:14.190Z,95896.73
2018-12-20T20:22:41.769Z,95889.81
2018-12-20T20:25:11.105Z,95900.87
2018-12-20T20:27:40.286Z,95902.44
2018-12-20T20:30:14.834Z,95891.83
2018-12-20T20:32:43.581Z,95896.23
2018-12-20T20:35:12.672Z,95899.04
2018-12-20T20:37:41.480Z,95898.58
2018-12-20T20:40:11.438Z,95898.85
2018-12-20T20:42:40.220Z,95907.44
2018-12-20T20:45:09.052Z,95904.41
2018-12-20T20:47:37.804Z,95910.00
2018-12-20T20:50:09.597Z,95911.57
2018-12-20T20:52:38.386Z,95911.57
2018-12-20T20:55:09.300Z,95906.62
2018-12-20T20:57:37.973Z,95903.58
2018-12-20T21:00:13.152Z,95904.81
2018-12-20T21:02:42.373Z,95897.92
2018-12-20T21:05:11.748Z,95897.51
2018-12-20T21:07:40.541Z,95903.06
2018-12-20T21:10:11.668Z,95905.41
2018-12-20T21:12:40.457Z,95903.98
2018-12-20T21:15:11.471Z,95898.98
2018-12-20T21:17:40.859Z,95901.64
2018-12-20T21:20:11.998Z,95908.34
2018-12-20T21:22:40.736Z,95898.84
2018-12-20T21:25:09.497Z,95899.66
2018-12-20T21:27:38.159Z,95900.66
2018-12-20T21:30:14.870Z,95895.25
2018-12-20T21:32:44.497Z,95897.44
2018-12-20T21:35:13.406Z,95904.47
2018-12-20T21:37:42.179Z,95901.85
2018-12-20T21:40:11.407Z,95899.98
2018-12-20T21:42:40.168Z,95896.59
2018-12-20T21:45:10.082Z,95898.43
2018-12-20T21:47:38.809Z,95896.27
2018-12-20T21:50:09.859Z,95893.14
2018-12-20T21:52:38.568Z,95897.61
2018-12-20T21:55:08.397Z,95897.00
2018-12-20T21:57:37.111Z,95893.80
2018-12-20T22:00:11.616Z,95891.73
2018-12-20T22:02:40.368Z,95901.98
2018-12-20T22:05:09.741Z,95901.09
2018-12-20T22:07:38.525Z,95901.46
2018-12-20T22:10:08.602Z,95892.19
2018-12-20T22:12:37.270Z,95899.73
2018-12-20T22:15:07.052Z,95903.13
2018-12-20T22:17:35.998Z,95904.59
2018-12-20T22:20:05.609Z,95913.44
2018-12-20T22:22:34.391Z,95908.12
2018-12-20T22:25:03.185Z,95905.45
2018-12-20T22:27:31.933Z,95909.17
2018-12-20T22:30:00.704Z,95910.83
2018-12-20T22:32:29.494Z,95904.45
2018-12-20T22:34:58.296Z,95884.12
2018-12-20T22:37:27.099Z,95879.53
2018-12-20T22:39:55.792Z,95884.43
2018-12-20T22:42:24.541Z,95886.58
2018-12-20T22:44:53.283Z,95881.22
2018-12-20T22:47:22.045Z,95877.87
2018-12-20T22:49:50.763Z,95883.39
2018-12-20T22:52:19.558Z,95879.52
2018-12-20T22:54:48.287Z,95879.25
2018-12-20T22:57:17.013Z,95878.24
2018-12-20T22:59:51.828Z,95880.58
2018-12-20T23:02:20.736Z,95881.77
2018-12-20T23:04:49.522Z,95873.05
2018-12-20T23:07:18.273Z,95877.55
2018-12-20T23:09:46.997Z,95883.38
2018-12-20T23:12:17.951Z,95885.03
2018-12-20T23:14:46.607Z,95882.23
2018-12-20T23:17:15.428Z,95871.21
2018-12-20T23:19:44.142Z,95870.76
2018-12-20T23:22:12.877Z,95872.36
2018-12-20T23:24:41.578Z,95882.05
2018-12-20T23:27:10.348Z,95884.66
2018-12-20T23:29:39.135Z,95880.44
2018-12-20T23:32:07.868Z,95869.16
2018-12-20T23:34:36.956Z,95872.03
2018-12-20T23:37:05.823Z,95859.55
2018-12-20T23:39:34.553Z,95857.30
2018-12-20T23:42:03.281Z,95863.19
2018-12-20T23:44:31.958Z,95874.58
2018-12-20T23:47:00.660Z,95873.77
2018-12-20T23:49:29.393Z,95880.44
2018-12-20T23:51:58.152Z,95882.80
2018-12-20T23:54:27.061Z,95880.59
2018-12-20T23:56:57.771Z,95889.19
2018-12-20T23:59:26.577Z,95886.84
